sensor_id;sensor_type;location;lat;lon;timestamp;pressure;altitude;pressure_sealevel;temperature;humidity
2711;BME280;20721;47.402;8.550;2023-01-27T00:00:31;96117;;;2.57;53.99
2711;BME280;20721;47.402;8.550;2023-01-27T00:01:31;96117;;;2.58;53.73
2711;BME280;20721;47.402;8.550;2023-01-27T00:02:31;96116;;;2.61;53.48
2711;BME280;20721;47.402;8.550;2023-01-27T00:03:31;96114;;;2.64;53.66
2711;BME280;20721;47.402;8.550;2023-01-27T00:04:31;96114;;;2.61;53.41
2711;BME280;20721;47.402;8.550;2023-01-27T00:05:31;96116;;;2.60;53.73
2711;BME280;20721;47.402;8.550;2023-01-27T00:06:31;96115;;;2.63;53.68
2711;BME280;20721;47.402;8.550;2023-01-27T00:07:31;96113;;;2.66;53.68
2711;BME280;20721;47.402;8.550;2023-01-27T00:08:31;96114;;;2.62;53.43
2711;BME280;20721;47.402;8.550;2023-01-27T00:09:31;96117;;;2.63;53.53
2711;BME280;20721;47.402;8.550;2023-01-27T00:11:41;96117;;;2.55;53.40
2711;BME280;20721;47.402;8.550;2023-01-27T00:12:42;96113;;;2.47;53.27
2711;BME280;20721;47.402;8.550;2023-01-27T00:13:32;96115;;;2.43;53.36
2711;BME280;20721;47.402;8.550;2023-01-27T00:14:31;96114;;;2.19;53.90
2711;BME280;20721;47.402;8.550;2023-01-27T00:15:32;96116;;;2.08;53.76
2711;BME280;20721;47.402;8.550;2023-01-27T00:16:31;96115;;;2.06;54.21
2711;BME280;20721;47.402;8.550;2023-01-27T00:17:31;96113;;;2.11;54.29
2711;BME280;20721;47.402;8.550;2023-01-27T00:18:31;96115;;;2.14;54.12
2711;BME280;20721;47.402;8.550;2023-01-27T00:19:31;96115;;;2.17;53.87
2711;BME280;20721;47.402;8.550;2023-01-27T00:20:41;96112;;;2.02;53.96
2711;BME280;20721;47.402;8.550;2023-01-27T00:21:41;96111;;;1.95;54.34
2711;BME280;20721;47.402;8.550;2023-01-27T00:22:41;96109;;;2.01;54.62
2711;BME280;20721;47.402;8.550;2023-01-27T00:23:41;96114;;;2.10;54.51
2711;BME280;20721;47.402;8.550;2023-01-27T00:24:34;96110;;;2.21;54.23
2711;BME280;20721;47.402;8.550;2023-01-27T00:25:31;96111;;;2.28;53.80
2711;BME280;20721;47.402;8.550;2023-01-27T00:26:31;96109;;;2.34;53.72
2711;BME280;20721;47.402;8.550;2023-01-27T00:27:31;96111;;;2.39;53.48
2711;BME280;20721;47.402;8.550;2023-01-27T00:28:32;96108;;;2.43;53.30
2711;BME280;20721;47.402;8.550;2023-01-27T00:29:31;96108;;;2.45;53.28
2711;BME280;20721;47.402;8.550;2023-01-27T00:30:31;96108;;;2.50;53.27
2711;BME280;20721;47.402;8.550;2023-01-27T00:31:41;96106;;;2.54;53.37
2711;BME280;20721;47.402;8.550;2023-01-27T00:32:41;96107;;;2.57;53.27
2711;BME280;20721;47.402;8.550;2023-01-27T00:33:31;96106;;;2.60;53.20
2711;BME280;20721;47.402;8.550;2023-01-27T00:34:31;96106;;;2.62;53.35
2711;BME280;20721;47.402;8.550;2023-01-27T00:35:31;96103;;;2.60;53.00
2711;BME280;20721;47.402;8.550;2023-01-27T00:36:31;96107;;;2.54;53.09
2711;BME280;20721;47.402;8.550;2023-01-27T00:37:31;96105;;;2.52;53.32
2711;BME280;20721;47.402;8.550;2023-01-27T00:38:32;96111;;;2.53;53.32
2711;BME280;20721;47.402;8.550;2023-01-27T00:39:31;96108;;;2.57;53.52
2711;BME280;20721;47.402;8.550;2023-01-27T00:40:31;96105;;;2.62;53.36
2711;BME280;20721;47.402;8.550;2023-01-27T00:41:33;96105;;;2.68;53.34
2711;BME280;20721;47.402;8.550;2023-01-27T00:42:31;96101;;;2.70;53.18
2711;BME280;20721;47.402;8.550;2023-01-27T00:45:41;96102;;;2.71;53.05
2711;BME280;20721;47.402;8.550;2023-01-27T00:47:32;96097;;;2.69;53.27
2711;BME280;20721;47.402;8.550;2023-01-27T00:48:31;96097;;;2.72;53.40
2711;BME280;20721;47.402;8.550;2023-01-27T00:49:31;96097;;;2.80;53.31
2711;BME280;20721;47.402;8.550;2023-01-27T00:50:31;96096;;;2.84;53.20
2711;BME280;20721;47.402;8.550;2023-01-27T00:51:31;96098;;;2.85;52.92
2711;BME280;20721;47.402;8.550;2023-01-27T00:52:31;96097;;;2.59;53.09
2711;BME280;20721;47.402;8.550;2023-01-27T00:53:31;96094;;;2.44;52.96
2711;BME280;20721;47.402;8.550;2023-01-27T00:54:31;96094;;;2.31;52.91
2711;BME280;20721;47.402;8.550;2023-01-27T00:55:31;96095;;;2.28;53.09
2711;BME280;20721;47.402;8.550;2023-01-27T00:56:32;96092;;;2.24;52.97
2711;BME280;20721;47.402;8.550;2023-01-27T00:57:31;96095;;;2.21;53.20
2711;BME280;20721;47.402;8.550;2023-01-27T00:59:31;96092;;;2.22;53.52
2711;BME280;20721;47.402;8.550;2023-01-27T01:00:31;96095;;;2.23;53.47
2711;BME280;20721;47.402;8.550;2023-01-27T01:01:33;96091;;;2.27;53.28
2711;BME280;20721;47.402;8.550;2023-01-27T01:02:31;96092;;;2.23;53.07
2711;BME280;20721;47.402;8.550;2023-01-27T01:03:32;96093;;;2.18;52.96
2711;BME280;20721;47.402;8.550;2023-01-27T01:04:31;96101;;;2.15;52.80
2711;BME280;20721;47.402;8.550;2023-01-27T01:05:31;96093;;;2.09;52.91
2711;BME280;20721;47.402;8.550;2023-01-27T01:06:31;96096;;;2.02;53.09
2711;BME280;20721;47.402;8.550;2023-01-27T01:07:31;96099;;;1.95;52.98
2711;BME280;20721;47.402;8.550;2023-01-27T01:08:32;96101;;;1.69;53.61
2711;BME280;20721;47.402;8.550;2023-01-27T01:09:31;96096;;;1.68;54.08
2711;BME280;20721;47.402;8.550;2023-01-27T01:10:31;96102;;;1.65;54.26
2711;BME280;20721;47.402;8.550;2023-01-27T01:11:31;96100;;;1.71;54.19
2711;BME280;20721;47.402;8.550;2023-01-27T01:12:31;96097;;;1.78;53.92
2711;BME280;20721;47.402;8.550;2023-01-27T01:13:32;96095;;;1.85;53.78
2711;BME280;20721;47.402;8.550;2023-01-27T01:14:31;96095;;;1.89;53.82
2711;BME280;20721;47.402;8.550;2023-01-27T01:15:33;96097;;;1.94;53.81
2711;BME280;20721;47.402;8.550;2023-01-27T01:16:31;96098;;;2.01;53.82
2711;BME280;20721;47.402;8.550;2023-01-27T01:17:31;96096;;;2.10;53.62
2711;BME280;20721;47.402;8.550;2023-01-27T01:18:31;96094;;;2.17;53.57
2711;BME280;20721;47.402;8.550;2023-01-27T01:19:31;96102;;;2.13;52.96
2711;BME280;20721;47.402;8.550;2023-01-27T01:21:31;96103;;;1.96;53.00
2711;BME280;20721;47.402;8.550;2023-01-27T01:22:31;96101;;;1.77;53.52
2711;BME280;20721;47.402;8.550;2023-01-27T01:23:32;96101;;;1.58;53.83
2711;BME280;20721;47.402;8.550;2023-01-27T01:24:31;96111;;;1.43;54.11
2711;BME280;20721;47.402;8.550;2023-01-27T01:25:32;96106;;;1.29;54.50
2711;BME280;20721;47.402;8.550;2023-01-27T01:26:31;96103;;;1.19;55.03
2711;BME280;20721;47.402;8.550;2023-01-27T01:27:32;96112;;;1.27;55.30
2711;BME280;20721;47.402;8.550;2023-01-27T01:28:31;96106;;;1.30;55.17
2711;BME280;20721;47.402;8.550;2023-01-27T01:30:33;96106;;;1.26;54.84
2711;BME280;20721;47.402;8.550;2023-01-27T01:31:31;96104;;;1.16;55.40
2711;BME280;20721;47.402;8.550;2023-01-27T01:32:31;96109;;;1.19;55.33
2711;BME280;20721;47.402;8.550;2023-01-27T01:33:31;96105;;;1.12;55.24
2711;BME280;20721;47.402;8.550;2023-01-27T01:34:31;96103;;;1.07;55.45
2711;BME280;20721;47.402;8.550;2023-01-27T01:35:35;96106;;;1.11;55.63
2711;BME280;20721;47.402;8.550;2023-01-27T01:36:32;96102;;;1.19;55.49
2711;BME280;20721;47.402;8.550;2023-01-27T01:37:31;96103;;;1.31;55.11
2711;BME280;20721;47.402;8.550;2023-01-27T01:38:32;96100;;;1.45;54.96
2711;BME280;20721;47.402;8.550;2023-01-27T01:39:32;96091;;;1.58;54.61
2711;BME280;20721;47.402;8.550;2023-01-27T01:40:32;96094;;;1.57;54.31
2711;BME280;20721;47.402;8.550;2023-01-27T01:41:31;96094;;;1.62;54.31
2711;BME280;20721;47.402;8.550;2023-01-27T01:43:32;96088;;;1.67;54.27
2711;BME280;20721;47.402;8.550;2023-01-27T01:44:32;96085;;;1.74;54.28
2711;BME280;20721;47.402;8.550;2023-01-27T01:46:32;96085;;;1.92;53.63
2711;BME280;20721;47.402;8.550;2023-01-27T01:47:32;96086;;;1.96;53.45
2711;BME280;20721;47.402;8.550;2023-01-27T01:48:33;96085;;;2.01;53.65
2711;BME280;20721;47.402;8.550;2023-01-27T01:49:33;96083;;;1.91;53.02
2711;BME280;20721;47.402;8.550;2023-01-27T01:50:32;96082;;;1.82;53.57
2711;BME280;20721;47.402;8.550;2023-01-27T01:51:40;96078;;;1.80;53.60
2711;BME280;20721;47.402;8.550;2023-01-27T01:52:32;96083;;;1.88;53.67
2711;BME280;20721;47.402;8.550;2023-01-27T01:53:35;96085;;;1.91;53.36
2711;BME280;20721;47.402;8.550;2023-01-27T01:54:33;96081;;;1.80;53.42
2711;BME280;20721;47.402;8.550;2023-01-27T01:55:31;96082;;;1.71;53.82
2711;BME280;20721;47.402;8.550;2023-01-27T01:57:32;96082;;;1.71;53.65
2711;BME280;20721;47.402;8.550;2023-01-27T01:58:31;96079;;;1.75;53.64
2711;BME280;20721;47.402;8.550;2023-01-27T02:00:32;96075;;;1.70;53.35
2711;BME280;20721;47.402;8.550;2023-01-27T02:01:32;96079;;;1.72;53.55
2711;BME280;20721;47.402;8.550;2023-01-27T02:02:32;96075;;;1.80;53.67
2711;BME280;20721;47.402;8.550;2023-01-27T02:03:32;96074;;;1.70;53.44
2711;BME280;20721;47.402;8.550;2023-01-27T02:04:36;96073;;;1.73;53.58
2711;BME280;20721;47.402;8.550;2023-01-27T02:05:33;96078;;;1.75;53.42
2711;BME280;20721;47.402;8.550;2023-01-27T02:06:33;96071;;;1.74;53.49
2711;BME280;20721;47.402;8.550;2023-01-27T02:08:34;96070;;;1.88;53.42
2711;BME280;20721;47.402;8.550;2023-01-27T02:09:32;96067;;;1.86;53.42
2711;BME280;20721;47.402;8.550;2023-01-27T02:10:32;96069;;;1.93;53.49
2711;BME280;20721;47.402;8.550;2023-01-27T02:11:32;96065;;;2.01;53.34
2711;BME280;20721;47.402;8.550;2023-01-27T02:12:32;96063;;;2.10;53.16
2711;BME280;20721;47.402;8.550;2023-01-27T02:13:32;96063;;;2.19;53.05
2711;BME280;20721;47.402;8.550;2023-01-27T02:14:32;96059;;;2.24;52.90
2711;BME280;20721;47.402;8.550;2023-01-27T02:15:32;96061;;;2.30;52.74
2711;BME280;20721;47.402;8.550;2023-01-27T02:16:32;96060;;;2.25;52.37
2711;BME280;20721;47.402;8.550;2023-01-27T02:17:31;96062;;;2.20;52.29
2711;BME280;20721;47.402;8.550;2023-01-27T02:18:32;96060;;;2.22;52.52
2711;BME280;20721;47.402;8.550;2023-01-27T02:20:49;96059;;;2.12;52.25
2711;BME280;20721;47.402;8.550;2023-01-27T02:21:32;96059;;;2.08;52.35
2711;BME280;20721;47.402;8.550;2023-01-27T02:23:36;96058;;;2.03;52.38
2711;BME280;20721;47.402;8.550;2023-01-27T02:24:33;96060;;;2.05;52.47
2711;BME280;20721;47.402;8.550;2023-01-27T02:26:36;96065;;;1.97;52.31
2711;BME280;20721;47.402;8.550;2023-01-27T02:27:32;96063;;;1.93;52.66
2711;BME280;20721;47.402;8.550;2023-01-27T02:28:32;96063;;;1.94;52.84
2711;BME280;20721;47.402;8.550;2023-01-27T02:29:32;96061;;;1.86;52.63
2711;BME280;20721;47.402;8.550;2023-01-27T02:30:32;96062;;;1.81;52.95
2711;BME280;20721;47.402;8.550;2023-01-27T02:32:33;96062;;;1.82;53.11
2711;BME280;20721;47.402;8.550;2023-01-27T02:33:32;96064;;;1.87;53.09
2711;BME280;20721;47.402;8.550;2023-01-27T02:34:32;96059;;;1.82;52.92
2711;BME280;20721;47.402;8.550;2023-01-27T02:35:34;96064;;;1.77;53.19
2711;BME280;20721;47.402;8.550;2023-01-27T02:36:33;96057;;;1.78;53.31
2711;BME280;20721;47.402;8.550;2023-01-27T02:37:32;96062;;;1.85;53.24
2711;BME280;20721;47.402;8.550;2023-01-27T02:38:33;96060;;;1.90;53.07
2711;BME280;20721;47.402;8.550;2023-01-27T02:39:33;96061;;;1.95;52.98
2711;BME280;20721;47.402;8.550;2023-01-27T02:40:32;96059;;;1.90;53.03
2711;BME280;20721;47.402;8.550;2023-01-27T02:41:34;96062;;;1.88;52.97
2711;BME280;20721;47.402;8.550;2023-01-27T02:43:32;96063;;;1.90;53.10
2711;BME280;20721;47.402;8.550;2023-01-27T02:44:32;96060;;;1.92;52.90
2711;BME280;20721;47.402;8.550;2023-01-27T02:45:32;96057;;;1.89;52.96
2711;BME280;20721;47.402;8.550;2023-01-27T02:46:32;96060;;;1.92;53.02
2711;BME280;20721;47.402;8.550;2023-01-27T02:47:32;96056;;;1.93;53.09
2711;BME280;20721;47.402;8.550;2023-01-27T02:48:32;96055;;;1.97;52.97
2711;BME280;20721;47.402;8.550;2023-01-27T02:49:32;96057;;;1.96;52.84
2711;BME280;20721;47.402;8.550;2023-01-27T02:50:32;96058;;;1.87;52.99
2711;BME280;20721;47.402;8.550;2023-01-27T02:52:32;96058;;;1.94;53.06
2711;BME280;20721;47.402;8.550;2023-01-27T02:53:32;96053;;;1.97;53.00
2711;BME280;20721;47.402;8.550;2023-01-27T02:54:32;96053;;;1.96;52.97
2711;BME280;20721;47.402;8.550;2023-01-27T02:55:32;96053;;;1.95;53.24
2711;BME280;20721;47.402;8.550;2023-01-27T02:56:32;96054;;;1.94;52.90
2711;BME280;20721;47.402;8.550;2023-01-27T02:57:32;96049;;;1.93;53.01
2711;BME280;20721;47.402;8.550;2023-01-27T02:58:32;96053;;;1.86;52.99
2711;BME280;20721;47.402;8.550;2023-01-27T03:00:32;96050;;;1.85;53.23
2711;BME280;20721;47.402;8.550;2023-01-27T03:01:32;96052;;;1.86;53.21
2711;BME280;20721;47.402;8.550;2023-01-27T03:03:32;96046;;;1.83;53.16
2711;BME280;20721;47.402;8.550;2023-01-27T03:04:32;96050;;;1.66;53.32
2711;BME280;20721;47.402;8.550;2023-01-27T03:05:32;96048;;;1.50;53.81
2711;BME280;20721;47.402;8.550;2023-01-27T03:06:32;96048;;;1.52;54.31
2711;BME280;20721;47.402;8.550;2023-01-27T03:07:32;96048;;;1.62;54.22
2711;BME280;20721;47.402;8.550;2023-01-27T03:08:32;96049;;;1.73;53.87
2711;BME280;20721;47.402;8.550;2023-01-27T03:09:32;96049;;;1.75;53.90
2711;BME280;20721;47.402;8.550;2023-01-27T03:10:32;96051;;;1.82;53.72
2711;BME280;20721;47.402;8.550;2023-01-27T03:11:42;96045;;;1.93;53.59
2711;BME280;20721;47.402;8.550;2023-01-27T03:12:32;96042;;;1.98;53.43
2711;BME280;20721;47.402;8.550;2023-01-27T03:13:32;96042;;;2.06;53.30
2711;BME280;20721;47.402;8.550;2023-01-27T03:14:42;96048;;;2.18;53.18
2711;BME280;20721;47.402;8.550;2023-01-27T03:15:42;96044;;;2.27;53.01
2711;BME280;20721;47.402;8.550;2023-01-27T03:16:42;96040;;;2.35;52.88
2711;BME280;20721;47.402;8.550;2023-01-27T03:17:42;96037;;;2.43;52.46
2711;BME280;20721;47.402;8.550;2023-01-27T03:18:32;96041;;;2.37;52.27
2711;BME280;20721;47.402;8.550;2023-01-27T03:19:32;96043;;;2.31;52.29
2711;BME280;20721;47.402;8.550;2023-01-27T03:21:32;96040;;;2.27;52.47
2711;BME280;20721;47.402;8.550;2023-01-27T03:22:32;96040;;;2.26;52.64
2711;BME280;20721;47.402;8.550;2023-01-27T03:23:33;96043;;;2.31;52.66
2711;BME280;20721;47.402;8.550;2023-01-27T03:24:32;96043;;;2.37;52.58
2711;BME280;20721;47.402;8.550;2023-01-27T03:25:32;96042;;;2.38;52.42
2711;BME280;20721;47.402;8.550;2023-01-27T03:26:32;96038;;;2.40;52.37
2711;BME280;20721;47.402;8.550;2023-01-27T03:27:32;96043;;;2.45;52.37
2711;BME280;20721;47.402;8.550;2023-01-27T03:28:32;96042;;;2.52;52.27
2711;BME280;20721;47.402;8.550;2023-01-27T03:29:42;96039;;;2.44;52.16
2711;BME280;20721;47.402;8.550;2023-01-27T03:30:33;96041;;;2.43;52.37
2711;BME280;20721;47.402;8.550;2023-01-27T03:31:32;96039;;;2.42;52.49
2711;BME280;20721;47.402;8.550;2023-01-27T03:32:32;96041;;;2.44;52.60
2711;BME280;20721;47.402;8.550;2023-01-27T03:33:32;96042;;;2.50;52.53
2711;BME280;20721;47.402;8.550;2023-01-27T03:34:32;96037;;;2.53;52.15
2711;BME280;20721;47.402;8.550;2023-01-27T03:35:33;96036;;;2.55;52.13
2711;BME280;20721;47.402;8.550;2023-01-27T03:36:42;96038;;;2.57;52.13
2711;BME280;20721;47.402;8.550;2023-01-27T03:37:42;96040;;;2.58;52.07
2711;BME280;20721;47.402;8.550;2023-01-27T03:38:42;96039;;;2.60;52.01
2711;BME280;20721;47.402;8.550;2023-01-27T03:39:42;96036;;;2.62;51.95
2711;BME280;20721;47.402;8.550;2023-01-27T03:40:42;96034;;;2.64;51.96
2711;BME280;20721;47.402;8.550;2023-01-27T03:41:42;96036;;;2.66;51.81
2711;BME280;20721;47.402;8.550;2023-01-27T03:43:42;96034;;;2.68;51.95
2711;BME280;20721;47.402;8.550;2023-01-27T03:44:42;96037;;;2.71;51.88
2711;BME280;20721;47.402;8.550;2023-01-27T03:46:32;96030;;;2.73;51.82
2711;BME280;20721;47.402;8.550;2023-01-27T03:47:32;96027;;;2.74;51.81
2711;BME280;20721;47.402;8.550;2023-01-27T03:48:32;96029;;;2.76;51.88
2711;BME280;20721;47.402;8.550;2023-01-27T03:49:32;96030;;;2.78;51.95
2711;BME280;20721;47.402;8.550;2023-01-27T03:50:42;96032;;;2.80;51.90
2711;BME280;20721;47.402;8.550;2023-01-27T03:51:32;96038;;;2.82;51.95
2711;BME280;20721;47.402;8.550;2023-01-27T03:52:32;96038;;;2.85;51.98
2711;BME280;20721;47.402;8.550;2023-01-27T03:53:32;96032;;;2.89;51.99
2711;BME280;20721;47.402;8.550;2023-01-27T03:54:32;96034;;;2.91;51.77
2711;BME280;20721;47.402;8.550;2023-01-27T03:56:32;96036;;;2.88;51.59
2711;BME280;20721;47.402;8.550;2023-01-27T03:57:32;96035;;;2.86;51.80
2711;BME280;20721;47.402;8.550;2023-01-27T03:58:33;96034;;;2.88;51.74
2711;BME280;20721;47.402;8.550;2023-01-27T03:59:32;96036;;;2.89;51.66
2711;BME280;20721;47.402;8.550;2023-01-27T04:00:32;96035;;;2.88;51.53
2711;BME280;20721;47.402;8.550;2023-01-27T04:01:32;96036;;;2.89;51.57
2711;BME280;20721;47.402;8.550;2023-01-27T04:02:42;96033;;;2.86;51.56
2711;BME280;20721;47.402;8.550;2023-01-27T04:04:42;96032;;;2.85;51.51
2711;BME280;20721;47.402;8.550;2023-01-27T04:06:42;96032;;;2.84;51.53
2711;BME280;20721;47.402;8.550;2023-01-27T04:07:33;96033;;;2.80;51.54
2711;BME280;20721;47.402;8.550;2023-01-27T04:08:32;96033;;;2.79;51.68
2711;BME280;20721;47.402;8.550;2023-01-27T04:09:33;96032;;;2.80;51.68
2711;BME280;20721;47.402;8.550;2023-01-27T04:10:32;96031;;;2.72;51.64
2711;BME280;20721;47.402;8.550;2023-01-27T04:11:42;96035;;;2.69;51.72
2711;BME280;20721;47.402;8.550;2023-01-27T04:12:32;96033;;;2.59;51.92
2711;BME280;20721;47.402;8.550;2023-01-27T04:13:32;96031;;;2.55;52.15
2711;BME280;20721;47.402;8.550;2023-01-27T04:14:33;96035;;;2.57;52.23
2711;BME280;20721;47.402;8.550;2023-01-27T04:15:32;96036;;;2.59;52.20
2711;BME280;20721;47.402;8.550;2023-01-27T04:16:33;96036;;;2.62;52.17
2711;BME280;20721;47.402;8.550;2023-01-27T04:17:37;96036;;;2.67;52.26
2711;BME280;20721;47.402;8.550;2023-01-27T04:18:32;96037;;;2.73;52.14
2711;BME280;20721;47.402;8.550;2023-01-27T04:19:32;96042;;;2.75;51.99
2711;BME280;20721;47.402;8.550;2023-01-27T04:20:32;96049;;;2.74;51.84
2711;BME280;20721;47.402;8.550;2023-01-27T04:21:32;96047;;;2.66;52.03
2711;BME280;20721;47.402;8.550;2023-01-27T04:22:32;96045;;;2.64;52.27
2711;BME280;20721;47.402;8.550;2023-01-27T04:23:32;96048;;;2.66;52.29
2711;BME280;20721;47.402;8.550;2023-01-27T04:24:32;96046;;;2.61;52.35
2711;BME280;20721;47.402;8.550;2023-01-27T04:26:33;96051;;;2.56;52.25
2711;BME280;20721;47.402;8.550;2023-01-27T04:27:32;96050;;;2.53;52.48
2711;BME280;20721;47.402;8.550;2023-01-27T04:28:42;96053;;;2.45;52.50
2711;BME280;20721;47.402;8.550;2023-01-27T04:29:34;96053;;;2.29;52.98
2711;BME280;20721;47.402;8.550;2023-01-27T04:30:32;96054;;;2.23;53.30
2711;BME280;20721;47.402;8.550;2023-01-27T04:31:32;96048;;;2.28;53.36
2711;BME280;20721;47.402;8.550;2023-01-27T04:32:32;96048;;;2.36;53.26
2711;BME280;20721;47.402;8.550;2023-01-27T04:33:32;96046;;;2.43;53.21
2711;BME280;20721;47.402;8.550;2023-01-27T04:34:32;96044;;;2.52;53.07
2711;BME280;20721;47.402;8.550;2023-01-27T04:35:41;96046;;;2.58;52.94
2711;BME280;20721;47.402;8.550;2023-01-27T04:36:32;96046;;;2.62;52.72
2711;BME280;20721;47.402;8.550;2023-01-27T04:37:32;96044;;;2.64;52.78
2711;BME280;20721;47.402;8.550;2023-01-27T04:39:32;96043;;;2.61;52.71
2711;BME280;20721;47.402;8.550;2023-01-27T04:40:32;96047;;;2.57;52.93
2711;BME280;20721;47.402;8.550;2023-01-27T04:42:32;96046;;;2.59;53.10
2711;BME280;20721;47.402;8.550;2023-01-27T04:43:32;96046;;;2.60;53.08
2711;BME280;20721;47.402;8.550;2023-01-27T04:44:32;96039;;;2.63;53.04
2711;BME280;20721;47.402;8.550;2023-01-27T04:45:32;96044;;;2.68;53.08
2711;BME280;20721;47.402;8.550;2023-01-27T04:46:33;96041;;;2.72;52.96
2711;BME280;20721;47.402;8.550;2023-01-27T04:47:32;96033;;;2.74;52.89
2711;BME280;20721;47.402;8.550;2023-01-27T04:48:32;96031;;;2.80;52.90
2711;BME280;20721;47.402;8.550;2023-01-27T04:49:32;96029;;;2.83;52.84
2711;BME280;20721;47.402;8.550;2023-01-27T04:50:32;96030;;;2.84;52.79
2711;BME280;20721;47.402;8.550;2023-01-27T04:51:32;96029;;;2.83;52.89
2711;BME280;20721;47.402;8.550;2023-01-27T04:52:32;96029;;;2.84;52.95
2711;BME280;20721;47.402;8.550;2023-01-27T04:53:32;96029;;;2.86;52.99
2711;BME280;20721;47.402;8.550;2023-01-27T04:54:32;96026;;;2.87;53.00
2711;BME280;20721;47.402;8.550;2023-01-27T04:55:32;96025;;;2.85;53.09
2711;BME280;20721;47.402;8.550;2023-01-27T04:56:36;96028;;;2.86;53.19
2711;BME280;20721;47.402;8.550;2023-01-27T04:57:32;96022;;;2.90;53.19
2711;BME280;20721;47.402;8.550;2023-01-27T04:58:32;96022;;;2.94;53.22
2711;BME280;20721;47.402;8.550;2023-01-27T04:59:32;96026;;;2.93;53.24
2711;BME280;20721;47.402;8.550;2023-01-27T05:00:32;96029;;;2.92;53.33
2711;BME280;20721;47.402;8.550;2023-01-27T05:01:32;96029;;;2.86;53.49
2711;BME280;20721;47.402;8.550;2023-01-27T05:02:32;96030;;;2.87;53.58
2711;BME280;20721;47.402;8.550;2023-01-27T05:03:33;96026;;;2.88;53.61
2711;BME280;20721;47.402;8.550;2023-01-27T05:04:32;96030;;;2.90;53.68
2711;BME280;20721;47.402;8.550;2023-01-27T05:05:32;96037;;;2.93;53.70
2711;BME280;20721;47.402;8.550;2023-01-27T05:06:32;96033;;;2.94;53.64
2711;BME280;20721;47.402;8.550;2023-01-27T05:07:32;96038;;;2.95;53.65
2711;BME280;20721;47.402;8.550;2023-01-27T05:08:32;96036;;;2.88;53.59
2711;BME280;20721;47.402;8.550;2023-01-27T05:09:32;96037;;;2.83;53.65
2711;BME280;20721;47.402;8.550;2023-01-27T05:10:32;96036;;;2.69;54.04
2711;BME280;20721;47.402;8.550;2023-01-27T05:11:32;96034;;;2.61;54.37
2711;BME280;20721;47.402;8.550;2023-01-27T05:12:32;96032;;;2.63;54.49
2711;BME280;20721;47.402;8.550;2023-01-27T05:13:32;96035;;;2.66;54.36
2711;BME280;20721;47.402;8.550;2023-01-27T05:14:32;96033;;;2.64;54.45
2711;BME280;20721;47.402;8.550;2023-01-27T05:15:32;96033;;;2.61;54.57
2711;BME280;20721;47.402;8.550;2023-01-27T05:17:32;96034;;;2.64;54.68
2711;BME280;20721;47.402;8.550;2023-01-27T05:18:32;96034;;;2.68;54.66
2711;BME280;20721;47.402;8.550;2023-01-27T05:19:32;96031;;;2.75;54.60
2711;BME280;20721;47.402;8.550;2023-01-27T05:20:32;96032;;;2.80;54.54
2711;BME280;20721;47.402;8.550;2023-01-27T05:21:32;96032;;;2.85;54.50
2711;BME280;20721;47.402;8.550;2023-01-27T05:22:32;96033;;;2.89;54.38
2711;BME280;20721;47.402;8.550;2023-01-27T05:23:35;96034;;;2.88;54.38
2711;BME280;20721;47.402;8.550;2023-01-27T05:24:33;96037;;;2.86;54.38
2711;BME280;20721;47.402;8.550;2023-01-27T05:25:32;96038;;;2.87;54.49
2711;BME280;20721;47.402;8.550;2023-01-27T05:26:32;96033;;;2.90;54.33
2711;BME280;20721;47.402;8.550;2023-01-27T05:28:32;96036;;;2.87;54.22
2711;BME280;20721;47.402;8.550;2023-01-27T05:29:32;96038;;;2.81;54.39
2711;BME280;20721;47.402;8.550;2023-01-27T05:30:32;96037;;;2.76;54.50
2711;BME280;20721;47.402;8.550;2023-01-27T05:31:32;96038;;;2.72;54.63
2711;BME280;20721;47.402;8.550;2023-01-27T05:32:32;96034;;;2.71;54.67
2711;BME280;20721;47.402;8.550;2023-01-27T05:34:32;96033;;;2.74;54.79
2711;BME280;20721;47.402;8.550;2023-01-27T05:35:34;96035;;;2.79;54.72
2711;BME280;20721;47.402;8.550;2023-01-27T05:36:32;96033;;;2.72;54.70
2711;BME280;20721;47.402;8.550;2023-01-27T05:37:32;96035;;;2.70;54.86
2711;BME280;20721;47.402;8.550;2023-01-27T05:40:32;96045;;;2.68;54.86
2711;BME280;20721;47.402;8.550;2023-01-27T05:41:33;96038;;;2.60;54.98
2711;BME280;20721;47.402;8.550;2023-01-27T05:42:32;96041;;;2.57;55.13
2711;BME280;20721;47.402;8.550;2023-01-27T05:43:33;96039;;;2.53;55.30
2711;BME280;20721;47.402;8.550;2023-01-27T05:45:32;96041;;;2.56;55.36
2711;BME280;20721;47.402;8.550;2023-01-27T05:46:32;96039;;;2.57;55.32
2711;BME280;20721;47.402;8.550;2023-01-27T05:47:32;96043;;;2.56;55.32
2711;BME280;20721;47.402;8.550;2023-01-27T05:48:33;96043;;;2.55;55.27
2711;BME280;20721;47.402;8.550;2023-01-27T05:50:32;96046;;;2.53;55.46
2711;BME280;20721;47.402;8.550;2023-01-27T05:51:33;96049;;;2.54;55.53
2711;BME280;20721;47.402;8.550;2023-01-27T05:52:32;96053;;;2.55;55.57
2711;BME280;20721;47.402;8.550;2023-01-27T05:54:32;96057;;;2.59;55.59
2711;BME280;20721;47.402;8.550;2023-01-27T05:55:32;96058;;;2.61;55.60
2711;BME280;20721;47.402;8.550;2023-01-27T05:56:32;96058;;;2.64;55.63
2711;BME280;20721;47.402;8.550;2023-01-27T05:57:32;96058;;;2.66;55.69
2711;BME280;20721;47.402;8.550;2023-01-27T05:58:32;96056;;;2.69;55.70
2711;BME280;20721;47.402;8.550;2023-01-27T05:59:32;96055;;;2.72;55.65
2711;BME280;20721;47.402;8.550;2023-01-27T06:00:32;96057;;;2.71;55.54
2711;BME280;20721;47.402;8.550;2023-01-27T06:01:33;96061;;;2.66;55.69
2711;BME280;20721;47.402;8.550;2023-01-27T06:02:32;96059;;;2.64;55.88
2711;BME280;20721;47.402;8.550;2023-01-27T06:03:32;96061;;;2.62;55.74
2711;BME280;20721;47.402;8.550;2023-01-27T06:04:32;96064;;;2.61;55.88
2711;BME280;20721;47.402;8.550;2023-01-27T06:05:32;96062;;;2.60;55.89
2711;BME280;20721;47.402;8.550;2023-01-27T06:06:32;96068;;;2.58;55.94
2711;BME280;20721;47.402;8.550;2023-01-27T06:07:32;96068;;;2.56;56.02
2711;BME280;20721;47.402;8.550;2023-01-27T06:08:32;96067;;;2.57;56.09
2711;BME280;20721;47.402;8.550;2023-01-27T06:09:32;96067;;;2.58;56.10
2711;BME280;20721;47.402;8.550;2023-01-27T06:10:36;96060;;;2.57;55.89
2711;BME280;20721;47.402;8.550;2023-01-27T06:11:32;96057;;;2.50;56.04
2711;BME280;20721;47.402;8.550;2023-01-27T06:12:32;96059;;;2.47;56.17
2711;BME280;20721;47.402;8.550;2023-01-27T06:13:37;96051;;;2.45;56.32
2711;BME280;20721;47.402;8.550;2023-01-27T06:14:32;96052;;;2.48;56.41
2711;BME280;20721;47.402;8.550;2023-01-27T06:15:32;96051;;;2.52;56.35
2711;BME280;20721;47.402;8.550;2023-01-27T06:16:32;96053;;;2.55;56.25
2711;BME280;20721;47.402;8.550;2023-01-27T06:17:32;96060;;;2.56;56.17